Time;durP1;ratioP1;P1;durP2;ratioP2;P2;SDS_P1;SDS_P2;PMS_P1;PMS_P2;Temp;Humidity;BMP_temperature;BMP_pressure;BME280_temperature;BME280_humidity;BME280_pressure;Samples;Min_cycle;Max_cycle;Signal;HPM_P1;HPM_P2
2022/11/06 00:02:17;;;;;;;7.20;6.20;;;;;;;;;;5000589;28;20804;-45
2022/11/06 00:04:43;;;;;;;7.70;7.00;;;;;;;;;;5003719;28;20784;-44
2022/11/06 00:07:09;;;;;;;8.43;6.67;;;;;;;;;;4999193;28;20501;-45
2022/11/06 00:09:35;;;;;;;14.63;7.10;;;;;;;;;;4995620;28;20418;-45
2022/11/06 00:12:01;;;;;;;13.53;8.07;;;;;;;;;;4996145;28;20438;-46
2022/11/06 00:14:27;;;;;;;8.50;6.60;;;;;;;;;;5000970;28;20416;-46
2022/11/06 00:16:53;;;;;;;7.93;6.47;;;;;;;;;;5001935;28;21067;-45
2022/11/06 00:19:19;;;;;;;13.63;7.03;;;;;;;;;;5000323;28;20543;-45
2022/11/06 00:21:45;;;;;;;8.77;6.23;;;;;;;;;;5001127;28;20434;-46
2022/11/06 00:24:12;;;;;;;8.03;7.20;;;;;;;;;;4997820;28;20427;-46
2022/11/06 00:26:38;;;;;;;9.90;6.30;;;;;;;;;;5002273;28;20550;-46
2022/11/06 00:29:05;;;;;;;7.20;6.50;;;;;;;;;;5001299;28;20890;-45
2022/11/06 00:31:32;;;;;;;10.30;7.07;;;;;;;;;;4998499;28;20432;-45
2022/11/06 00:33:59;;;;;;;8.90;6.30;;;;;;;;;;5001484;28;20426;-46
2022/11/06 00:36:26;;;;;;;9.03;7.33;;;;;;;;;;5001604;28;20547;-46
2022/11/06 00:38:53;;;;;;;9.57;6.30;;;;;;;;;;5000025;28;20462;-45
2022/11/06 00:41:19;;;;;;;6.90;6.13;;;;;;;;;;5000681;28;20839;-45
2022/11/06 00:43:49;;;;;;;10.43;6.77;;;;;;;;;;5001549;28;20502;-45
2022/11/06 00:46:15;;;;;;;9.47;5.93;;;;;;;;;;5001361;28;20417;-46
2022/11/06 00:48:41;;;;;;;10.50;7.10;;;;;;;;;;5001113;28;20410;-46
2022/11/06 00:51:10;;;;;;;8.53;6.87;;;;;;;;;;5002105;28;21127;-45
2022/11/06 00:53:36;;;;;;;7.53;5.50;;;;;;;;;;5004626;28;20807;-45
2022/11/06 00:56:06;;;;;;;11.00;6.77;;;;;;;;;;5007064;28;20894;-46
2022/11/06 00:58:32;;;;;;;8.80;6.67;;;;;;;;;;5004049;28;20824;-45
2022/11/06 01:01:12;;;;;;;10.10;6.87;;;;;;;;;;5005602;28;20439;-45
2022/11/06 01:03:39;;;;;;;6.53;5.53;;;;;;;;;;5006024;28;20497;-45
2022/11/06 01:06:06;;;;;;;6.90;5.90;;;;;;;;;;5000593;28;20442;-45
2022/11/06 01:08:32;;;;;;;7.57;5.10;;;;;;;;;;5006368;28;20453;-45
2022/11/06 01:10:58;;;;;;;6.77;5.27;;;;;;;;;;4999448;28;20435;-45
2022/11/06 01:13:24;;;;;;;5.60;5.20;;;;;;;;;;5003778;28;20908;-45
2022/11/06 01:15:50;;;;;;;5.53;5.00;;;;;;;;;;5005276;28;20487;-45
2022/11/06 01:18:16;;;;;;;7.20;5.23;;;;;;;;;;5003109;28;20502;-45
2022/11/06 01:20:41;;;;;;;6.27;5.43;;;;;;;;;;5001458;28;20442;-46
2022/11/06 01:23:07;;;;;;;7.53;5.30;;;;;;;;;;5008289;28;20419;-45
2022/11/06 01:25:34;;;;;;;9.20;6.70;;;;;;;;;;5005823;28;20416;-45
2022/11/06 01:27:59;;;;;;;7.10;5.47;;;;;;;;;;5006419;28;20437;-46
2022/11/06 01:30:25;;;;;;;9.77;5.40;;;;;;;;;;5001041;28;20885;-45
2022/11/06 01:32:52;;;;;;;6.27;4.30;;;;;;;;;;5003421;28;20926;-45
2022/11/06 01:35:17;;;;;;;10.57;4.70;;;;;;;;;;5003215;28;20424;-46
2022/11/06 01:37:43;;;;;;;6.10;4.30;;;;;;;;;;5004536;28;20416;-45
2022/11/06 01:40:10;;;;;;;9.43;6.17;;;;;;;;;;5006021;28;20814;-46
2022/11/06 01:42:36;;;;;;;7.53;5.27;;;;;;;;;;5006597;28;20518;-45
2022/11/06 01:45:14;;;;;;;9.00;4.97;;;;;;;;;;5001117;28;20982;-45
2022/11/06 01:47:40;;;;;;;5.10;4.40;;;;;;;;;;5003952;28;20889;-45
2022/11/06 01:50:07;;;;;;;9.13;3.97;;;;;;;;;;5005675;28;20435;-46
2022/11/06 01:52:34;;;;;;;9.53;5.17;;;;;;;;;;5004210;28;20519;-46
2022/11/06 01:55:07;;;;;;;13.80;4.63;;;;;;;;;;5005928;28;20408;-46
2022/11/06 01:57:33;;;;;;;4.93;4.50;;;;;;;;;;5002657;28;20489;-46
2022/11/06 01:59:59;;;;;;;9.93;3.97;;;;;;;;;;5003752;28;20979;-45
2022/11/06 02:02:25;;;;;;;6.57;4.53;;;;;;;;;;5001811;28;20433;-45
2022/11/06 02:04:51;;;;;;;5.93;4.70;;;;;;;;;;5002159;28;20456;-45
2022/11/06 02:07:18;;;;;;;5.70;4.80;;;;;;;;;;5005567;28;20413;-45
2022/11/06 02:09:44;;;;;;;7.40;4.40;;;;;;;;;;5000634;28;20414;-45
2022/11/06 02:12:13;;;;;;;9.37;4.40;;;;;;;;;;5001809;28;20445;-46
2022/11/06 02:14:59;;;;;;;7.83;3.93;;;;;;;;;;5002843;28;21104;-45
2022/11/06 02:17:39;;;;;;;10.73;4.40;;;;;;;;;;4991791;28;20724;-45
2022/11/06 02:20:05;;;;;;;6.87;4.00;;;;;;;;;;4995219;28;20521;-45
2022/11/06 02:22:45;;;;;;;9.13;3.63;;;;;;;;;;5002179;28;20805;-45
2022/11/06 02:25:30;;;;;;;7.40;4.10;;;;;;;;;;5003974;28;20921;-45
2022/11/06 02:28:02;;;;;;;12.23;4.77;;;;;;;;;;5002020;28;20436;-45
2022/11/06 02:30:30;;;;;;;4.23;3.50;;;;;;;;;;5002028;28;20925;-45
2022/11/06 02:32:58;;;;;;;6.00;4.43;;;;;;;;;;5001764;28;20445;-45
2022/11/06 02:35:27;;;;;;;5.37;4.63;;;;;;;;;;5006879;28;20417;-45
2022/11/06 02:37:56;;;;;;;8.67;3.83;;;;;;;;;;5000664;28;20409;-45
2022/11/06 02:40:23;;;;;;;6.50;4.03;;;;;;;;;;5000188;28;20558;-45
2022/11/06 02:42:51;;;;;;;4.70;3.63;;;;;;;;;;5002519;28;20410;-46
2022/11/06 02:45:18;;;;;;;6.27;3.80;;;;;;;;;;5002076;28;20414;-45
2022/11/06 02:47:46;;;;;;;7.70;4.40;;;;;;;;;;5002705;28;20414;-45
2022/11/06 02:50:15;;;;;;;11.13;4.67;;;;;;;;;;5001398;28;20426;-45
2022/11/06 02:52:45;;;;;;;8.17;4.63;;;;;;;;;;5002867;28;20427;-46
2022/11/06 02:55:15;;;;;;;4.50;3.53;;;;;;;;;;5001918;28;20418;-45
2022/11/06 02:57:43;;;;;;;8.00;4.23;;;;;;;;;;4997418;28;20785;-45
2022/11/06 03:00:10;;;;;;;5.37;3.50;;;;;;;;;;5004545;28;20526;-46
2022/11/06 03:02:39;;;;;;;8.53;4.17;;;;;;;;;;5002195;28;20428;-45
2022/11/06 03:05:09;;;;;;;4.53;3.53;;;;;;;;;;5004418;28;20438;-46
2022/11/06 03:07:44;;;;;;;8.07;4.03;;;;;;;;;;5003700;28;20416;-45
2022/11/06 03:10:10;;;;;;;7.53;3.83;;;;;;;;;;5000230;28;20459;-45
2022/11/06 03:12:44;;;;;;;3.77;3.47;;;;;;;;;;5001232;28;20998;-45
2022/11/06 03:15:18;;;;;;;4.43;3.57;;;;;;;;;;5001372;28;20760;-45
2022/11/06 03:17:47;;;;;;;7.40;3.93;;;;;;;;;;5003608;28;20990;-45
2022/11/06 03:20:20;;;;;;;4.23;3.80;;;;;;;;;;5002502;28;20462;-45
2022/11/06 03:22:54;;;;;;;6.73;3.37;;;;;;;;;;4998757;28;20909;-45
2022/11/06 03:25:20;;;;;;;10.60;3.70;;;;;;;;;;4998677;28;20402;-45
2022/11/06 03:27:59;;;;;;;7.83;4.03;;;;;;;;;;5005462;28;20526;-45
2022/11/06 03:30:26;;;;;;;5.63;3.90;;;;;;;;;;5002212;28;20469;-45
2022/11/06 03:32:59;;;;;;;3.50;3.17;;;;;;;;;;5004342;28;20451;-45
2022/11/06 03:35:27;;;;;;;8.27;3.73;;;;;;;;;;5000922;28;20508;-45
2022/11/06 03:37:59;;;;;;;5.50;3.63;;;;;;;;;;5003032;28;20547;-45
2022/11/06 03:40:26;;;;;;;5.03;3.67;;;;;;;;;;5000527;28;20421;-45
2022/11/06 03:42:55;;;;;;;5.37;3.43;;;;;;;;;;5001150;28;20408;-45
2022/11/06 03:45:23;;;;;;;9.63;3.37;;;;;;;;;;5005481;28;20404;-45
2022/11/06 03:47:55;;;;;;;5.73;3.93;;;;;;;;;;5000087;28;20415;-45
2022/11/06 03:50:37;;;;;;;9.27;3.47;;;;;;;;;;4999618;28;20761;-45
2022/11/06 03:53:23;;;;;;;6.20;3.00;;;;;;;;;;4996634;28;20457;-45
2022/11/06 03:55:56;;;;;;;6.73;3.60;;;;;;;;;;4988814;28;20480;-45
2022/11/06 03:58:25;;;;;;;6.17;3.50;;;;;;;;;;5001656;28;20466;-45
2022/11/06 04:00:52;;;;;;;5.10;3.10;;;;;;;;;;5002689;28;20535;-46
2022/11/06 04:03:27;;;;;;;3.57;2.97;;;;;;;;;;5001423;28;20926;-46
2022/11/06 04:05:58;;;;;;;6.80;3.40;;;;;;;;;;5002911;28;20450;-45
2022/11/06 04:14:01;;;;;;;4.07;3.67;;;;;;;;;;4995029;28;20441;-45
2022/11/06 04:16:30;;;;;;;11.43;3.67;;;;;;;;;;4998260;28;20427;-45
2022/11/06 04:18:57;;;;;;;3.67;3.33;;;;;;;;;;4998207;28;20458;-45
2022/11/06 04:21:30;;;;;;;5.27;3.50;;;;;;;;;;5005061;28;20432;-45
2022/11/06 04:27:03;;;;;;;6.40;3.63;;;;;;;;;;5001104;28;20455;-45
2022/11/06 04:29:32;;;;;;;5.00;3.17;;;;;;;;;;4999882;28;20836;-45
2022/11/06 04:32:04;;;;;;;6.87;3.40;;;;;;;;;;4993492;28;20477;-45
2022/11/06 04:34:44;;;;;;;4.50;3.13;;;;;;;;;;5000468;28;20420;-45
2022/11/06 04:37:14;;;;;;;14.47;3.30;;;;;;;;;;4998946;28;20432;-45
2022/11/06 04:39:58;;;;;;;3.23;3.03;;;;;;;;;;5002563;28;20471;-45
2022/11/06 04:42:37;;;;;;;6.07;3.47;;;;;;;;;;5008375;28;20463;-45
2022/11/06 04:45:12;;;;;;;6.03;3.20;;;;;;;;;;4996701;28;20412;-45
2022/11/06 04:47:38;;;;;;;4.37;3.03;;;;;;;;;;5002425;28;20406;-45
2022/11/06 04:50:05;;;;;;;2.87;2.67;;;;;;;;;;4997215;28;20410;-44
2022/11/06 04:52:32;;;;;;;5.90;3.17;;;;;;;;;;4994895;28;20430;-44
2022/11/06 04:54:58;;;;;;;4.60;3.00;;;;;;;;;;5003271;28;20420;-44
2022/11/06 04:57:25;;;;;;;6.00;3.70;;;;;;;;;;4996141;28;20430;-44
2022/11/06 04:59:51;;;;;;;6.70;3.03;;;;;;;;;;5001695;28;20461;-44
2022/11/06 05:02:17;;;;;;;8.77;3.00;;;;;;;;;;4999633;28;20435;-44
2022/11/06 05:04:44;;;;;;;6.53;3.10;;;;;;;;;;5007771;28;20890;-44
2022/11/06 05:07:12;;;;;;;6.70;3.40;;;;;;;;;;4999586;28;20799;-44
2022/11/06 05:09:38;;;;;;;8.73;3.80;;;;;;;;;;5005580;28;20421;-44
2022/11/06 05:12:04;;;;;;;5.30;3.10;;;;;;;;;;4993501;28;20442;-45
2022/11/06 05:14:31;;;;;;;4.67;2.63;;;;;;;;;;4999592;28;20920;-44
2022/11/06 05:16:57;;;;;;;6.93;3.40;;;;;;;;;;4996094;28;20918;-44
2022/11/06 05:19:23;;;;;;;11.03;3.90;;;;;;;;;;4999582;28;20457;-44
2022/11/06 05:24:34;;;;;;;4.60;3.13;;;;;;;;;;5000816;28;20460;-44
2022/11/06 05:27:00;;;;;;;7.37;3.50;;;;;;;;;;5002392;28;20406;-45
2022/11/06 05:29:26;;;;;;;9.13;3.23;;;;;;;;;;5001919;28;20562;-45
2022/11/06 05:31:52;;;;;;;4.73;2.60;;;;;;;;;;4995530;28;20429;-45
2022/11/06 05:34:18;;;;;;;5.30;2.83;;;;;;;;;;5006485;28;20428;-44
2022/11/06 05:36:44;;;;;;;5.17;3.10;;;;;;;;;;5004237;28;20560;-45
2022/11/06 05:39:10;;;;;;;3.20;2.73;;;;;;;;;;5005240;28;20551;-45
2022/11/06 05:41:36;;;;;;;5.70;3.10;;;;;;;;;;5007500;28;20434;-45
2022/11/06 05:44:02;;;;;;;4.80;2.83;;;;;;;;;;5017995;28;20434;-45
2022/11/06 05:46:28;;;;;;;6.00;3.47;;;;;;;;;;5003704;28;20452;-45
2022/11/06 05:48:54;;;;;;;5.83;3.93;;;;;;;;;;5002703;28;20423;-45
2022/11/06 05:51:20;;;;;;;7.50;3.10;;;;;;;;;;5006488;28;20434;-45
2022/11/06 05:53:47;;;;;;;4.87;3.13;;;;;;;;;;5002213;28;20415;-45
2022/11/06 05:56:13;;;;;;;5.93;2.97;;;;;;;;;;5003093;28;20991;-45
2022/11/06 05:58:38;;;;;;;8.77;3.40;;;;;;;;;;5003634;28;20500;-45
2022/11/06 06:01:05;;;;;;;6.60;3.03;;;;;;;;;;5004960;28;20561;-45
2022/11/06 06:03:31;;;;;;;2.67;2.47;;;;;;;;;;5005579;28;20423;-45
2022/11/06 06:05:57;;;;;;;11.67;3.93;;;;;;;;;;5010159;28;20415;-45
2022/11/06 06:08:23;;;;;;;3.13;2.47;;;;;;;;;;5010328;28;20490;-44
2022/11/06 06:10:49;;;;;;;7.07;3.10;;;;;;;;;;4998325;28;20441;-45
2022/11/06 06:13:15;;;;;;;6.00;3.37;;;;;;;;;;5002760;28;20422;-44
2022/11/06 06:15:41;;;;;;;10.07;3.27;;;;;;;;;;5003903;28;20446;-45
2022/11/06 06:18:08;;;;;;;4.10;2.83;;;;;;;;;;5005631;28;20410;-45
2022/11/06 06:20:34;;;;;;;3.50;2.67;;;;;;;;;;5003581;28;20418;-45
2022/11/06 06:23:00;;;;;;;5.10;3.40;;;;;;;;;;5005938;28;20404;-45
2022/11/06 06:25:27;;;;;;;4.57;3.73;;;;;;;;;;5004501;28;20426;-45
2022/11/06 06:27:53;;;;;;;4.17;2.73;;;;;;;;;;5004997;28;20412;-45
2022/11/06 06:30:20;;;;;;;7.30;3.07;;;;;;;;;;5005219;28;20790;-45
2022/11/06 06:32:46;;;;;;;8.20;2.93;;;;;;;;;;5004984;28;20875;-45
2022/11/06 06:35:12;;;;;;;6.90;3.00;;;;;;;;;;5004306;28;20469;-45
2022/11/06 06:37:38;;;;;;;6.43;2.50;;;;;;;;;;5002649;28;20418;-45
2022/11/06 06:40:04;;;;;;;5.57;3.03;;;;;;;;;;5003422;28;20466;-45
2022/11/06 06:42:31;;;;;;;4.67;2.93;;;;;;;;;;5001804;28;20487;-45
2022/11/06 06:44:57;;;;;;;8.50;3.10;;;;;;;;;;5000936;28;20813;-45
2022/11/06 06:47:23;;;;;;;10.27;3.30;;;;;;;;;;5001040;28;20416;-45
2022/11/06 06:49:49;;;;;;;5.53;2.70;;;;;;;;;;5001624;28;20808;-45
2022/11/06 06:52:15;;;;;;;4.10;2.63;;;;;;;;;;4997889;28;20466;-45
2022/11/06 06:54:40;;;;;;;8.20;3.37;;;;;;;;;;5002026;28;20883;-45
2022/11/06 06:57:07;;;;;;;7.43;3.50;;;;;;;;;;4992381;28;20412;-45
2022/11/06 06:59:33;;;;;;;7.50;2.70;;;;;;;;;;5004503;28;20501;-45
2022/11/06 07:01:59;;;;;;;9.33;2.70;;;;;;;;;;5004076;28;20513;-45
2022/11/06 07:04:26;;;;;;;5.70;3.33;;;;;;;;;;5004970;28;20409;-45
2022/11/06 07:06:55;;;;;;;5.37;2.70;;;;;;;;;;4991702;28;20426;-44
2022/11/06 07:09:22;;;;;;;4.03;3.03;;;;;;;;;;4996870;28;20793;-45
2022/11/06 07:11:48;;;;;;;3.00;2.67;;;;;;;;;;5003098;28;20444;-44
2022/11/06 07:14:14;;;;;;;3.20;2.63;;;;;;;;;;5004809;28;20409;-44
2022/11/06 07:16:40;;;;;;;4.77;2.40;;;;;;;;;;5002923;28;20425;-45
2022/11/06 07:19:06;;;;;;;3.77;2.83;;;;;;;;;;5004376;28;20470;-45
2022/11/06 07:21:32;;;;;;;7.40;2.80;;;;;;;;;;4998424;28;20467;-45
2022/11/06 07:23:58;;;;;;;3.90;2.70;;;;;;;;;;5004502;28;20425;-45
2022/11/06 07:26:24;;;;;;;4.07;2.47;;;;;;;;;;4997214;28;20501;-45
2022/11/06 07:28:50;;;;;;;3.20;2.67;;;;;;;;;;5003651;28;20410;-45
2022/11/06 07:31:16;;;;;;;4.03;2.50;;;;;;;;;;5002086;28;20523;-44
2022/11/06 07:33:42;;;;;;;5.90;2.83;;;;;;;;;;5004490;28;20955;-44
2022/11/06 07:36:10;;;;;;;7.10;2.60;;;;;;;;;;5002244;28;20481;-44
2022/11/06 07:38:36;;;;;;;3.00;2.63;;;;;;;;;;5002430;28;20469;-44
2022/11/06 07:41:13;;;;;;;4.83;2.77;;;;;;;;;;4992107;28;20441;-44
2022/11/06 07:43:39;;;;;;;6.10;3.00;;;;;;;;;;5007700;28;20413;-45
2022/11/06 07:46:06;;;;;;;8.53;3.73;;;;;;;;;;4988748;28;20766;-45
2022/11/06 07:48:33;;;;;;;4.90;2.63;;;;;;;;;;4997335;28;20783;-45
2022/11/06 07:51:01;;;;;;;4.73;2.90;;;;;;;;;;4998334;28;20485;-45
2022/11/06 07:53:27;;;;;;;6.40;2.50;;;;;;;;;;5001153;28;20414;-44
2022/11/06 07:55:54;;;;;;;10.87;3.00;;;;;;;;;;5000512;28;20406;-45
2022/11/06 07:58:21;;;;;;;5.57;2.60;;;;;;;;;;5000224;28;20416;-45
2022/11/06 08:00:51;;;;;;;11.10;2.80;;;;;;;;;;5005178;28;20427;-44
2022/11/06 08:03:17;;;;;;;2.73;2.53;;;;;;;;;;5005593;28;20498;-45
2022/11/06 08:05:43;;;;;;;4.97;2.83;;;;;;;;;;4995667;28;20510;-44
2022/11/06 08:08:10;;;;;;;3.40;2.40;;;;;;;;;;5001662;28;20412;-45
2022/11/06 08:10:39;;;;;;;3.77;2.93;;;;;;;;;;5000364;28;20473;-46
2022/11/06 08:13:06;;;;;;;4.70;2.93;;;;;;;;;;4998886;28;20412;-45
2022/11/06 08:15:32;;;;;;;4.33;2.63;;;;;;;;;;4999307;28;20810;-45
2022/11/06 08:17:58;;;;;;;11.63;2.80;;;;;;;;;;5002868;28;20864;-44
2022/11/06 08:20:24;;;;;;;4.70;2.67;;;;;;;;;;5000868;28;20470;-45
2022/11/06 08:22:50;;;;;;;7.20;2.97;;;;;;;;;;4995502;28;20502;-44
2022/11/06 08:25:16;;;;;;;4.37;2.90;;;;;;;;;;5010107;28;20419;-44
2022/11/06 08:27:42;;;;;;;4.80;2.60;;;;;;;;;;4993301;28;20416;-44
2022/11/06 08:30:08;;;;;;;4.90;2.70;;;;;;;;;;5001872;28;20407;-45
2022/11/06 08:32:34;;;;;;;3.50;2.60;;;;;;;;;;5005879;28;20435;-45
2022/11/06 08:35:00;;;;;;;15.80;3.03;;;;;;;;;;4999875;28;20512;-44
2022/11/06 08:37:26;;;;;;;2.43;2.23;;;;;;;;;;4999523;28;20639;-44
2022/11/06 08:39:52;;;;;;;8.90;2.87;;;;;;;;;;5000069;28;20503;-45
2022/11/06 08:42:18;;;;;;;13.63;3.63;;;;;;;;;;5003441;28;20434;-44
2022/11/06 08:44:44;;;;;;;5.63;2.83;;;;;;;;;;4998609;28;20427;-45
2022/11/06 08:47:10;;;;;;;4.73;2.83;;;;;;;;;;4999657;28;20411;-45
2022/11/06 08:49:36;;;;;;;5.00;2.97;;;;;;;;;;4999891;28;20416;-45
2022/11/06 08:52:02;;;;;;;4.43;2.80;;;;;;;;;;5003081;28;20513;-45
2022/11/06 08:54:28;;;;;;;9.70;2.70;;;;;;;;;;5002218;28;20424;-45
2022/11/06 08:56:54;;;;;;;7.03;4.70;;;;;;;;;;5007200;28;20493;-44
2022/11/06 08:59:20;;;;;;;7.83;5.00;;;;;;;;;;5003184;28;20450;-44
2022/11/06 09:01:46;;;;;;;8.70;2.80;;;;;;;;;;5003093;28;20413;-45
2022/11/06 09:04:12;;;;;;;5.63;2.80;;;;;;;;;;4998363;28;20410;-44
2022/11/06 09:06:38;;;;;;;4.40;2.50;;;;;;;;;;5001070;28;20402;-44
2022/11/06 09:09:04;;;;;;;3.63;2.17;;;;;;;;;;5006926;28;20414;-44
2022/11/06 09:11:30;;;;;;;5.17;2.67;;;;;;;;;;5003978;28;20439;-45
2022/11/06 09:13:57;;;;;;;3.03;2.30;;;;;;;;;;5003616;28;20414;-45
2022/11/06 09:16:25;;;;;;;4.70;2.57;;;;;;;;;;4995570;28;20400;-45
2022/11/06 09:18:53;;;;;;;6.47;2.27;;;;;;;;;;4997674;28;20975;-45
2022/11/06 09:21:18;;;;;;;7.17;2.60;;;;;;;;;;4999413;28;20501;-44
2022/11/06 09:23:45;;;;;;;3.00;1.90;;;;;;;;;;5003530;28;20443;-47
2022/11/06 09:26:11;;;;;;;4.80;2.37;;;;;;;;;;5005832;28;20407;-48
2022/11/06 09:28:37;;;;;;;6.57;2.93;;;;;;;;;;4997579;28;20412;-44
2022/11/06 09:31:03;;;;;;;4.53;2.40;;;;;;;;;;5000475;28;20481;-45
2022/11/06 09:33:29;;;;;;;2.80;2.43;;;;;;;;;;5006697;28;20488;-44
2022/11/06 09:35:55;;;;;;;4.27;2.70;;;;;;;;;;5003170;28;20896;-45
2022/11/06 09:38:21;;;;;;;4.50;2.33;;;;;;;;;;5003151;28;20735;-46
2022/11/06 09:40:47;;;;;;;12.53;2.57;;;;;;;;;;5001728;28;20797;-45
2022/11/06 09:43:32;;;;;;;5.87;2.70;;;;;;;;;;5002518;28;20737;-45
2022/11/06 09:46:04;;;;;;;3.73;2.73;;;;;;;;;;4979692;28;20407;-44
2022/11/06 09:48:40;;;;;;;3.93;2.30;;;;;;;;;;4997792;28;20415;-44
2022/11/06 09:51:06;;;;;;;8.90;2.53;;;;;;;;;;4996076;28;20421;-44
2022/11/06 09:53:35;;;;;;;4.53;2.60;;;;;;;;;;5004903;28;20790;-44
2022/11/06 09:56:02;;;;;;;4.93;2.40;;;;;;;;;;5002852;28;20419;-45
2022/11/06 09:58:31;;;;;;;4.97;2.60;;;;;;;;;;5004479;28;20461;-44
2022/11/06 10:00:58;;;;;;;3.73;1.90;;;;;;;;;;4990211;28;20444;-43
2022/11/06 10:03:29;;;;;;;11.03;2.47;;;;;;;;;;5006022;28;20402;-45
2022/11/06 10:05:55;;;;;;;6.40;3.00;;;;;;;;;;4995373;28;20752;-45
2022/11/06 10:08:26;;;;;;;8.93;5.10;;;;;;;;;;5002622;28;20409;-46
2022/11/06 10:11:04;;;;;;;4.33;2.00;;;;;;;;;;5002737;28;20402;-45
2022/11/06 10:13:42;;;;;;;2.40;1.90;;;;;;;;;;5005891;28;20485;-45
2022/11/06 10:16:21;;;;;;;3.40;2.33;;;;;;;;;;4996328;28;20400;-45
2022/11/06 10:19:05;;;;;;;7.20;2.70;;;;;;;;;;5005569;28;20500;-45
2022/11/06 10:21:48;;;;;;;6.73;2.53;;;;;;;;;;5002133;28;20402;-45
2022/11/06 10:24:21;;;;;;;2.33;2.13;;;;;;;;;;5003724;28;20734;-45
2022/11/06 10:26:52;;;;;;;2.47;1.97;;;;;;;;;;5004264;28;20414;-46
2022/11/06 10:29:21;;;;;;;5.00;2.60;;;;;;;;;;4997538;28;20976;-47
2022/11/06 10:32:00;;;;;;;4.30;2.83;;;;;;;;;;5003926;28;20444;-46
2022/11/06 10:34:31;;;;;;;3.80;2.30;;;;;;;;;;5007198;28;20436;-45
2022/11/06 10:37:02;;;;;;;3.00;2.10;;;;;;;;;;4993500;28;20462;-44
2022/11/06 10:39:32;;;;;;;5.20;2.10;;;;;;;;;;4991594;28;20449;-44
2022/11/06 10:42:01;;;;;;;3.50;2.30;;;;;;;;;;4995913;28;20442;-44
2022/11/06 10:44:31;;;;;;;4.23;2.23;;;;;;;;;;5001637;28;20910;-44
2022/11/06 10:47:03;;;;;;;5.43;2.60;;;;;;;;;;4994049;28;20379;-44
2022/11/06 10:49:30;;;;;;;2.33;2.13;;;;;;;;;;5001716;28;20918;-45
2022/11/06 10:51:59;;;;;;;3.47;2.20;;;;;;;;;;5004830;28;20407;-44
2022/11/06 10:54:25;;;;;;;5.10;2.23;;;;;;;;;;5003713;28;20462;-45
2022/11/06 10:56:51;;;;;;;4.50;2.10;;;;;;;;;;4995434;28;20461;-46
2022/11/06 10:59:17;;;;;;;5.70;2.13;;;;;;;;;;5006842;28;20432;-45
2022/11/06 11:01:43;;;;;;;5.57;2.50;;;;;;;;;;5002169;28;20435;-45
2022/11/06 11:04:09;;;;;;;3.87;2.40;;;;;;;;;;5005849;28;20418;-45
2022/11/06 11:06:38;;;;;;;3.40;2.57;;;;;;;;;;5002170;28;20871;-45
2022/11/06 11:09:24;;;;;;;3.40;1.97;;;;;;;;;;5002391;28;20418;-46
2022/11/06 11:11:50;;;;;;;5.33;2.40;;;;;;;;;;5001792;28;20424;-45
2022/11/06 11:14:22;;;;;;;4.10;2.40;;;;;;;;;;5001434;28;20417;-44
2022/11/06 11:16:48;;;;;;;3.87;2.17;;;;;;;;;;5006980;28;20774;-44
2022/11/06 11:19:14;;;;;;;2.73;2.23;;;;;;;;;;5002788;28;20814;-45
2022/11/06 11:21:51;;;;;;;2.63;2.43;;;;;;;;;;4994134;28;20435;-44
2022/11/06 11:24:17;;;;;;;2.63;2.43;;;;;;;;;;4997502;28;20407;-46
2022/11/06 11:26:44;;;;;;;2.70;2.50;;;;;;;;;;5002575;28;20981;-45
2022/11/06 11:29:15;;;;;;;5.03;2.50;;;;;;;;;;5005842;28;20426;-45
2022/11/06 11:31:44;;;;;;;5.43;2.40;;;;;;;;;;4999632;28;20431;-44
2022/11/06 11:34:16;;;;;;;5.97;2.53;;;;;;;;;;5005119;28;20475;-45
2022/11/06 11:36:54;;;;;;;6.80;2.60;;;;;;;;;;4997134;28;20481;-45
2022/11/06 11:39:21;;;;;;;8.63;2.70;;;;;;;;;;4991450;28;20495;-44
2022/11/06 11:41:47;;;;;;;5.10;2.80;;;;;;;;;;4993785;28;20517;-45
2022/11/06 11:44:17;;;;;;;2.90;2.30;;;;;;;;;;4994346;28;20514;-48
2022/11/06 11:46:53;;;;;;;6.40;3.27;;;;;;;;;;4992949;28;20921;-47
2022/11/06 11:49:26;;;;;;;7.90;3.03;;;;;;;;;;4992582;28;20454;-46
2022/11/06 11:51:52;;;;;;;2.80;2.60;;;;;;;;;;4993436;28;20446;-47
2022/11/06 11:54:20;;;;;;;9.70;3.73;;;;;;;;;;4993851;28;20415;-48
2022/11/06 11:56:53;;;;;;;12.03;5.63;;;;;;;;;;4997188;28;20415;-47
2022/11/06 11:59:26;;;;;;;5.90;3.03;;;;;;;;;;5011630;28;20472;-49
2022/11/06 12:01:53;;;;;;;5.73;3.00;;;;;;;;;;4996937;28;20494;-44
2022/11/06 12:04:30;;;;;;;5.37;2.40;;;;;;;;;;5001886;28;20490;-44
2022/11/06 12:06:58;;;;;;;3.10;2.60;;;;;;;;;;4993125;28;20445;-47
2022/11/06 12:09:25;;;;;;;5.70;2.70;;;;;;;;;;5003907;28;20413;-44
2022/11/06 12:11:52;;;;;;;3.30;2.80;;;;;;;;;;5001296;28;20977;-47
2022/11/06 12:14:25;;;;;;;9.83;3.40;;;;;;;;;;5003809;28;20405;-44
2022/11/06 12:16:53;;;;;;;5.10;2.97;;;;;;;;;;5008880;28;20421;-45
2022/11/06 12:19:20;;;;;;;7.27;3.10;;;;;;;;;;5000880;28;20454;-46
2022/11/06 12:21:49;;;;;;;2.70;2.50;;;;;;;;;;4990274;28;20435;-45
2022/11/06 12:24:35;;;;;;;3.00;2.40;;;;;;;;;;4992300;28;20482;-45
2022/11/06 12:27:07;;;;;;;4.80;2.60;;;;;;;;;;4998741;28;20491;-44
2022/11/06 12:29:39;;;;;;;8.70;3.77;;;;;;;;;;5002856;28;20413;-45
2022/11/06 12:32:05;;;;;;;4.23;3.17;;;;;;;;;;4999013;28;20560;-45
2022/11/06 12:34:51;;;;;;;8.57;3.10;;;;;;;;;;4996253;28;20467;-45
2022/11/06 12:37:23;;;;;;;6.63;2.63;;;;;;;;;;4993305;28;20422;-46
2022/11/06 12:39:54;;;;;;;4.73;2.47;;;;;;;;;;5002387;28;20457;-48
2022/11/06 12:42:22;;;;;;;10.13;2.80;;;;;;;;;;4999436;28;20512;-44
2022/11/06 12:44:47;;;;;;;3.40;2.60;;;;;;;;;;5006689;28;20406;-45
2022/11/06 12:47:27;;;;;;;4.07;3.20;;;;;;;;;;5004247;28;20962;-44
2022/11/06 12:49:59;;;;;;;4.80;2.00;;;;;;;;;;5003877;28;20792;-45
2022/11/06 12:52:43;;;;;;;5.27;2.70;;;;;;;;;;4997028;28;20445;-44
2022/11/06 12:55:39;;;;;;;4.20;2.67;;;;;;;;;;5000084;28;20414;-44
2022/11/06 12:58:08;;;;;;;3.37;2.30;;;;;;;;;;4996418;28;20425;-44
2022/11/06 13:00:46;;;;;;;6.27;2.80;;;;;;;;;;5006059;28;20500;-43
2022/11/06 13:03:30;;;;;;;4.27;2.20;;;;;;;;;;5002179;28;20889;-44
2022/11/06 13:06:14;;;;;;;3.57;2.60;;;;;;;;;;5000074;28;20467;-44
2022/11/06 13:08:43;;;;;;;3.57;2.67;;;;;;;;;;5005397;28;20460;-44
2022/11/06 13:11:21;;;;;;;2.73;1.90;;;;;;;;;;5005254;28;20534;-44
2022/11/06 13:14:06;;;;;;;3.43;2.17;;;;;;;;;;5001422;28;20776;-46
2022/11/06 13:16:32;;;;;;;4.57;3.10;;;;;;;;;;4999713;28;20416;-47
2022/11/06 13:19:04;;;;;;;6.90;2.60;;;;;;;;;;5008196;28;20456;-44
2022/11/06 13:21:39;;;;;;;5.47;2.23;;;;;;;;;;5004214;28;20933;-44
2022/11/06 13:24:12;;;;;;;4.43;2.30;;;;;;;;;;4998324;28;20924;-44
2022/11/06 13:26:43;;;;;;;3.10;1.90;;;;;;;;;;5008515;28;20410;-43
2022/11/06 13:29:10;;;;;;;2.90;2.40;;;;;;;;;;5003154;28;20510;-44
2022/11/06 13:31:41;;;;;;;2.20;2.00;;;;;;;;;;5002835;28;21020;-44
2022/11/06 13:34:12;;;;;;;4.80;2.27;;;;;;;;;;5002718;28;20445;-44
2022/11/06 13:36:38;;;;;;;4.83;2.20;;;;;;;;;;5018880;28;20936;-44
2022/11/06 13:39:21;;;;;;;2.17;1.97;;;;;;;;;;5002330;28;20467;-45
2022/11/06 13:41:47;;;;;;;3.30;2.50;;;;;;;;;;4999112;28;20944;-45
2022/11/06 13:44:16;;;;;;;8.50;3.10;;;;;;;;;;5002882;28;20408;-44
2022/11/06 13:46:42;;;;;;;5.47;2.30;;;;;;;;;;5004356;28;20411;-44
2022/11/06 13:49:27;;;;;;;2.43;2.20;;;;;;;;;;5004361;28;20409;-44
2022/11/06 13:52:22;;;;;;;4.90;1.90;;;;;;;;;;5005366;28;20835;-45
2022/11/06 13:54:51;;;;;;;4.57;1.67;;;;;;;;;;4995751;28;20433;-45
2022/11/06 13:57:32;;;;;;;6.33;2.00;;;;;;;;;;5002764;28;20417;-46
2022/11/06 14:00:16;;;;;;;2.50;2.30;;;;;;;;;;5001463;28;20463;-45
2022/11/06 14:02:45;;;;;;;4.93;2.63;;;;;;;;;;5004490;28;20405;-45
2022/11/06 14:05:23;;;;;;;4.70;2.20;;;;;;;;;;5006711;28;20426;-47
2022/11/06 14:07:50;;;;;;;1.90;1.80;;;;;;;;;;5006427;28;20405;-46
2022/11/06 14:10:18;;;;;;;6.50;2.00;;;;;;;;;;5005669;28;20913;-46
2022/11/06 14:12:48;;;;;;;3.03;2.10;;;;;;;;;;4999122;28;20422;-47
2022/11/06 14:15:20;;;;;;;6.57;2.10;;;;;;;;;;5005906;28;20420;-46
2022/11/06 14:17:59;;;;;;;2.90;2.13;;;;;;;;;;5002785;28;20444;-45
2022/11/06 14:20:30;;;;;;;2.10;2.00;;;;;;;;;;5002747;28;21017;-45
2022/11/06 14:23:16;;;;;;;2.50;1.80;;;;;;;;;;5005146;28;20413;-46
2022/11/06 14:25:42;;;;;;;5.03;2.50;;;;;;;;;;5003753;28;20487;-46
2022/11/06 14:28:08;;;;;;;3.77;2.17;;;;;;;;;;5005286;28;20834;-46
2022/11/06 14:30:36;;;;;;;2.37;2.10;;;;;;;;;;5004780;28;20418;-46
2022/11/06 14:33:02;;;;;;;2.70;2.03;;;;;;;;;;5009787;28;20433;-45
2022/11/06 14:35:28;;;;;;;5.10;2.20;;;;;;;;;;5006834;28;20466;-47
2022/11/06 14:38:09;;;;;;;9.43;2.30;;;;;;;;;;5000377;28;20849;-46
2022/11/06 14:40:38;;;;;;;5.73;1.87;;;;;;;;;;4998223;28;20478;-46
2022/11/06 14:43:30;;;;;;;2.03;1.93;;;;;;;;;;5004956;28;20857;-46
2022/11/06 14:45:56;;;;;;;3.00;2.00;;;;;;;;;;4994767;28;20420;-46
2022/11/06 14:48:27;;;;;;;2.07;1.87;;;;;;;;;;5003010;28;20741;-46
2022/11/06 14:50:53;;;;;;;5.30;2.80;;;;;;;;;;5004507;28;21004;-46
2022/11/06 14:53:24;;;;;;;3.50;2.13;;;;;;;;;;5002599;28;20496;-45
2022/11/06 14:55:57;;;;;;;2.60;2.40;;;;;;;;;;5002604;28;21097;-45
2022/11/06 14:58:34;;;;;;;4.53;1.90;;;;;;;;;;5008017;28;20419;-45
2022/11/06 15:01:09;;;;;;;2.07;1.57;;;;;;;;;;4995720;28;20933;-45
2022/11/06 15:03:38;;;;;;;2.63;1.80;;;;;;;;;;5006436;28;20499;-46
2022/11/06 15:06:06;;;;;;;4.77;2.10;;;;;;;;;;5000115;28;20411;-45
2022/11/06 15:08:51;;;;;;;3.83;1.73;;;;;;;;;;4996624;28;20909;-46